Data for 06/15/2018

Time Sea-Level Adjusted Pressure Absolute Pressure Temperature Relative Humidity Dew Point   
(mb) (inHg) (mb) (inHg) (C) (F) (%) (C) (F)
00:05 1015 29.97 845 24.95 11.1 51.9 68 5.4 41.8
00:10 1015 29.97 844 24.92 11.4 52.6 67 5.6 42.1
00:15 1015 29.97 844 24.92 11.6 52.9 66 5.6 42.1
00:20 1015 29.97 844 24.92 11.3 52.4 69 5.9 42.6
00:25 1015 29.97 844 24.92 11.3 52.3 64 4.7 40.5
00:30 1015 29.97 844 24.92 11.8 53.2 64 5.2 41.3
00:35 1015 29.97 844 24.92 11.6 52.9 63 4.7 40.5
00:40 1015 29.97 844 24.92 11.7 53 59 4.1 39.4
00:45 1015 29.97 844 24.92 12.1 53.7 60 4.6 40.3
00:50 1015 29.97 844 24.92 12.1 53.7 62 5 41.1
00:55 1015 29.97 845 24.95 11.8 53.3 65 5.5 42
01:00 1015 29.97 845 24.95 11.4 52.5 67 5.6 42
01:05 1015 29.97 845 24.95 11.3 52.3 68 5.7 42.3
01:10 1015 29.97 845 24.95 11.1 51.9 71 6 42.9
01:15 1015 29.97 845 24.95 10.9 51.5 72 6.1 42.9
01:20 1015 29.97 845 24.95 10.7 51.3 72 5.9 42.6
01:25 1015 29.97 845 24.95 10.7 51.2 70 5.5 41.9
01:30 1016 30 845 24.95 10.8 51.4 70 5.5 41.9
01:35 1015 29.97 845 24.95 10.8 51.5 68 5.3 41.5
01:40 1015 29.97 845 24.95 10.9 51.6 67 5.1 41.2
01:45 1015 29.97 845 24.95 10.9 51.6 67 5.1 41.1
01:50 1015 29.97 845 24.95 10.9 51.6 67 4.9 40.9
01:55 1015 29.97 844 24.92 10.9 51.5 66 4.7 40.5
02:00 1015 29.97 844 24.92 10.8 51.4 66 4.7 40.4
02:05 1015 29.97 844 24.92 10.7 51.3 64 4.3 39.7
02:10 1015 29.97 844 24.92 10.7 51.2 64 4.1 39.4
02:15 1015 29.97 844 24.92 10.7 51.2 62 3.6 38.6
02:20 1015 29.97 844 24.92 10.8 51.4 61 3.5 38.4
02:25 1015 29.97 844 24.92 11 51.7 58 3 37.4
02:30 1015 29.97 844 24.92 11.1 51.9 57 2.9 37.2
02:35 1015 29.97 844 24.92 11 51.8 58 3.2 37.8
02:40 1015 29.97 844 24.92 11 51.7 59 3.3 37.9
02:45 1015 29.97 844 24.92 10.9 51.5 60 3.5 38.2
02:50 1015 29.97 844 24.92 10.8 51.4 60 3.3 37.9
02:55 1015 29.97 844 24.92 10.7 51.3 59 3.1 37.6
03:00 1015 29.97 844 24.92 10.8 51.4 56 2.4 36.3
03:05 1015 29.97 844 24.92 10.7 51.3 56 2.3 36.2
03:10 1015 29.97 845 24.95 10.7 51.2 56 2.4 36.3
03:15 1015 29.97 845 24.95 10.6 51.1 60 3.1 37.6
03:20 1015 29.97 845 24.95 10.4 50.7 62 3.4 38.2
03:25 1015 29.97 845 24.95 10.3 50.5 61 3.2 37.8
03:30 1015 29.97 845 24.95 10.2 50.4 64 3.7 38.7
03:35 1015 29.97 844 24.92 10 50.1 64 3.7 38.6
03:40 1015 29.97 844 24.92 9.9 49.8 68 4.2 39.6
03:45 1015 29.97 844 24.92 9.6 49.3 69 4.2 39.5
03:50 1015 29.97 844 24.92 9.6 49.2 72 4.9 40.8
03:55 1015 29.97 844 24.92 9.3 48.7 73 4.7 40.5
04:00 1015 29.97 844 24.92 9.3 48.7 72 4.5 40.1
04:05 1015 29.97 844 24.92 9.4 48.9 72 4.7 40.4
04:10 1015 29.97 844 24.92 9.3 48.7 74 4.8 40.7
04:15 1015 29.97 844 24.92 9.1 48.4 73 4.5 40.2
04:20 1015 29.97 844 24.92 9.1 48.5 69 3.9 39
04:25 1015 29.97 844 24.92 9.3 48.7 69 3.9 39.1
04:30 1015 29.97 844 24.92 9.3 48.8 69 4.1 39.3
04:35 1015 29.97 844 24.92 9.3 48.8 70 4.1 39.4
04:40 1015 29.97 844 24.92 9.2 48.6 69 3.9 38.9
04:45 1015 29.97 844 24.92 9.2 48.6 69 3.9 39
04:50 1015 29.97 844 24.92 9.3 48.7 68 3.7 38.7
04:55 1015 29.97 844 24.92 9.4 48.9 67 3.7 38.6
05:00 1015 29.97 844 24.92 9.4 48.9 68 3.8 38.8
05:05 1015 29.97 844 24.92 9.4 48.9 68 3.8 38.8
05:10 1015 29.97 844 24.92 9.3 48.8 70 4.2 39.5
05:15 1015 29.97 844 24.92 9.3 48.7 66 3.3 37.9
05:20 1015 29.97 844 24.92 9.5 49.1 68 3.9 39
05:25 1015 29.97 844 24.92 9.7 49.4 67 3.9 39.1
05:30 1015 29.97 844 24.92 9.8 49.6 66 3.8 38.9
05:35 1015 29.97 844 24.92 9.8 49.6 68 4.2 39.6
05:40 1015 29.97 844 24.92 9.8 49.7 67 4.1 39.4
05:45 1015 29.97 844 24.92 9.8 49.6 67 4 39.1
05:50 1015 29.97 844 24.92 9.8 49.6 66 3.8 38.9
05:55 1015 29.97 844 24.92 9.9 49.7 66 3.9 39
06:00 1015 29.97 844 24.92 9.9 49.9 64 3.5 38.3
06:05 1015 29.97 844 24.92 10.1 50.1 60 2.6 36.7
06:10 1015 29.97 844 24.92 10.3 50.5 58 2.3 36.1
06:15 1015 29.97 844 24.92 10.3 50.6 55 1.6 35
06:20 1015 29.97 844 24.92 10.4 50.7 56 2.1 35.7
06:25 1015 29.97 844 24.92 10.3 50.6 55 1.7 35.1
06:30 1015 29.97 844 24.92 10.3 50.5 63 3.5 38.2
06:35 1015 29.97 844 24.92 9.8 49.7 64 3.5 38.2
06:40 1015 29.97 844 24.92 9.8 49.6 62 3 37.3
06:45 1015 29.97 844 24.92 9.9 49.8 61 2.6 36.7
06:50 1015 29.97 844 24.92 9.9 49.9 61 2.9 37.2
06:55 1015 29.97 844 24.92 9.8 49.7 68 4.2 39.5
07:00 1015 29.97 844 24.92 9.5 49.1 70 4.3 39.7
07:05 1015 29.97 844 24.92 9.4 48.8 67 3.6 38.5
07:10 1015 29.97 844 24.92 9.5 49.2 67 3.8 38.8
07:15 1015 29.97 844 24.92 9.9 49.8 65 3.6 38.4
07:20 1015 29.97 844 24.92 10.1 50.2 63 3.4 38.1
07:25 1015 29.97 844 24.92 10 50 63 3.3 37.9
07:30 1015 29.97 844 24.92 9.9 49.8 63 3.1 37.6
07:35 1015 29.97 844 24.92 10 49.9 59 2.2 36
07:40 1015 29.97 844 24.92 10.2 50.3 56 1.7 35.1
07:45 1015 29.97 844 24.92 10.4 50.7 57 2.2 35.9
07:50 1015 29.97 844 24.92 10.7 51.2 55 1.9 35.5
07:55 1015 29.97 844 24.92 10.8 51.5 54 2.1 35.7
08:00 1015 29.97 844 24.92 10.9 51.6 53 1.8 35.3
08:05 1015 29.97 844 24.92 10.9 51.5 52 1.5 34.6
08:10 1015 29.97 844 24.92 10.6 51.2 52 1.4 34.5
08:15 1015 29.97 844 24.92 10.6 51.2 53 1.5 34.7
08:20 1015 29.97 844 24.92 10.8 51.4 54 1.8 35.3
08:25 1015 29.97 844 24.92 10.9 51.6 53 1.8 35.3
08:30 1015 29.97 844 24.92 10.8 51.5 51 1.1 33.9
08:35 1015 29.97 844 24.92 10.7 51.3 52 1.2 34.2
08:40 1015 29.97 844 24.92 10.9 51.6 52 1.4 34.5
08:45 1015 29.97 844 24.92 10.9 51.6 51 1.3 34.3
08:50 1015 29.97 844 24.92 11.1 51.9 52 1.5 34.7
08:55 1015 29.97 844 24.92 11.2 52.2 52 1.9 35.4
09:00 1015 29.97 844 24.92 11.3 52.4 52 2 35.6
09:05 1015 29.97 844 24.92 11.4 52.5 53 2.1 35.8
09:10 1015 29.97 845 24.95 11.3 52.4 54 2.3 36.2
09:15 1015 29.97 845 24.95 11.2 52.1 52 1.9 35.4
09:20 1015 29.97 844 24.92 10.6 51.1 54 1.7 35
09:25 1015 29.97 844 24.92 10.6 51 53 1.4 34.5
09:30 1015 29.97 844 24.92 11 51.8 53 1.8 35.3
09:35 1015 29.97 844 24.92 11.2 52.1 53 2.1 35.8
09:40 1015 29.97 844 24.92 11.4 52.4 53 2.3 36.1
09:45 1015 29.97 844 24.92 11.3 52.3 55 2.5 36.5
09:50 1015 29.97 844 24.92 11.4 52.6 54 2.6 36.7
09:55 1015 29.97 844 24.92 11.5 52.7 53 2.3 36.1
10:00 1015 29.97 844 24.92 11.8 53.2 53 2.5 36.5
10:05 1015 29.97 844 24.92 11.8 53.3 53 2.7 36.9
10:10 1015 29.97 844 24.92 11.6 52.8 54 2.6 36.7
10:15 1015 29.97 844 24.92 11.6 52.9 55 2.8 37.1
10:20 1015 29.97 844 24.92 12.1 53.8 53 2.8 37
10:25 1015 29.97 844 24.92 12.1 53.8 52 2.6 36.7
10:30 1015 29.97 844 24.92 12.1 53.7 52 2.6 36.7
10:35 1015 29.97 844 24.92 11.9 53.4 52 2.4 36.3
10:40 1015 29.97 844 24.92 12.5 54.4 49 2.1 35.8
10:45 1015 29.97 844 24.92 12.5 54.5 51 2.7 36.9
10:50 1015 29.97 844 24.92 12.8 55 49 2.4 36.4
10:55 1015 29.97 844 24.92 12.8 55 53 3.6 38.6
11:00 1015 29.97 844 24.92 12.4 54.3 55 3.6 38.5
11:05 1015 29.97 844 24.92 12.5 54.6 53 3.3 38
11:10 1015 29.97 844 24.92 12.5 54.4 54 3.4 38.2
11:15 1015 29.97 844 24.92 12.3 54.2 54 3.5 38.3
11:20 1015 29.97 844 24.92 12.6 54.7 54 3.5 38.3
11:25 1015 29.97 844 24.92 12.8 55.1 53 3.6 38.4
11:30 1015 29.97 844 24.92 12.8 55 55 3.9 39
11:35 1015 29.97 844 24.92 12.7 54.8 54 3.8 38.8
11:40 1015 29.97 844 24.92 12.5 54.5 54 3.5 38.4
11:45 1015 29.97 844 24.92 12.8 55 53 3.4 38.2
11:50 1015 29.97 844 24.92 13.1 55.6 52 3.6 38.5
11:55 1015 29.97 844 24.92 13.3 55.9 51 3.5 38.3
12:00 1015 29.97 844 24.92 13.2 55.7 51 3.4 38.1
12:05 1015 29.97 844 24.92 13.3 56 51 3.5 38.3
12:10 1015 29.97 844 24.92 13.2 55.8 53 4 39.2
12:15 1015 29.97 844 24.92 13.2 55.7 51 3.4 38.1
12:20 1015 29.97 844 24.92 13.8 56.9 50 3.6 38.5
12:25 1015 29.97 844 24.92 13.7 56.6 52 4.2 39.5
12:30 1015 29.97 844 24.92 13.7 56.7 51 3.8 38.8
12:35 1015 29.97 844 24.92 14.4 57.8 49 3.9 39
12:40 1015 29.97 844 24.92 14.1 57.4 52 4.4 39.9
12:45 1015 29.97 844 24.92 13.4 56.1 53 4.2 39.5
12:50 1015 29.97 844 24.92 13.8 56.8 50 3.7 38.7
12:55 1015 29.97 844 24.92 14.3 57.8 49 3.9 39
13:00 1015 29.97 844 24.92 15.1 59.2 49 4.5 40.1
13:05 1015 29.97 844 24.92 15.2 59.3 47 3.9 39.1
13:10 1015 29.97 844 24.92 15.4 59.7 50 5.1 41.1
13:15 1015 29.97 844 24.92 15.4 59.8 47 4.2 39.5
13:20 1015 29.97 844 24.92 16.3 61.4 45 4.6 40.2
13:25 1015 29.97 844 24.92 15.8 60.5 50 5.4 41.7
13:30 1015 29.97 844 24.92 14.7 58.5 51 4.6 40.4
13:35 1015 29.97 844 24.92 16.1 61 46 4.7 40.5
13:40 1014 29.94 844 24.92 16.5 61.6 46 4.9 40.9
13:45 1014 29.94 844 24.92 16.6 61.9 50 6.1 43
13:50 1014 29.94 844 24.92 15.7 60.3 50 5.5 41.9
13:55 1014 29.94 843 24.89 15.5 59.9 48 4.6 40.3
14:00 1014 29.94 843 24.89 16.2 61.1 47 4.9 40.8
14:05 1014 29.94 843 24.89 16 60.8 48 5.2 41.4
14:10 1014 29.94 843 24.89 15.7 60.2 47 4.6 40.3
14:15 1014 29.94 843 24.89 16.2 61.2 47 4.9 40.9
14:20 1014 29.94 843 24.89 16.9 62.3 46 5.4 41.6
14:25 1014 29.94 843 24.89 16.9 62.4 45 5 41.1
14:30 1014 29.94 843 24.89 16.4 61.6 47 5.2 41.3
14:35 1014 29.94 843 24.89 17.2 63 44 4.9 40.9
14:40 1014 29.94 843 24.89 16.9 62.4 45 4.9 40.9
14:45 1014 29.94 843 24.89 17.3 63.1 43 4.5 40.2
14:50 1014 29.94 843 24.89 17.1 62.7 44 4.8 40.7
14:55 1013 29.91 843 24.89 17 62.6 43 4.5 40.1
15:00 1013 29.91 843 24.89 17.1 62.7 42 4.3 39.7
15:05 1013 29.91 843 24.89 18.3 65 39 4.3 39.7
15:10 1013 29.91 843 24.89 18 64.5 41 4.9 40.8
15:15 1013 29.91 843 24.89 17.6 63.6 42 4.7 40.5
15:20 1013 29.91 843 24.89 17.2 62.9 42 4.2 39.6
15:25 1013 29.91 843 24.89 17.2 63 42 4.3 39.7
15:30 1013 29.91 843 24.89 17.1 62.9 44 4.8 40.6
15:35 1013 29.91 843 24.89 17.3 63.2 42 4.3 39.8
15:40 1013 29.91 843 24.89 17.4 63.3 41 4.3 39.7
15:45 1013 29.91 843 24.89 17.5 63.6 41 4.1 39.4
15:50 1013 29.91 843 24.89 17.5 63.6 44 5.2 41.3
15:55 1013 29.91 842 24.86 16.6 61.8 49 5.8 42.5
16:00 1013 29.91 842 24.86 16.2 61.2 48 5.3 41.6
16:05 1013 29.91 842 24.86 16.2 61.1 50 5.8 42.5
16:10 1013 29.91 842 24.86 16.2 61.2 48 5.4 41.8
16:15 1013 29.91 842 24.86 16.2 61.1 50 6 42.7
16:20 1013 29.91 842 24.86 15.9 60.6 49 5.2 41.4
16:25 1013 29.91 842 24.86 15.7 60.3 49 5.2 41.4
16:30 1013 29.91 842 24.86 16.1 60.9 46 4.4 40
16:35 1013 29.91 842 24.86 16 60.7 48 5.1 41.1
16:40 1013 29.91 842 24.86 16 60.8 50 5.6 42.1
16:45 1013 29.91 842 24.86 15.9 60.6 51 5.8 42.4
16:50 1013 29.91 842 24.86 16.3 61.3 48 5.3 41.5
16:55 1013 29.91 842 24.86 16 60.8 50 5.6 42.1
17:00 1013 29.91 842 24.86 16.2 61.1 49 5.7 42.2
17:05 1013 29.91 842 24.86 16.2 61.1 46 4.6 40.2
17:10 1013 29.91 842 24.86 16.1 60.9 44 4 39.2
17:15 1013 29.91 842 24.86 16.2 61.2 46 4.6 40.4
17:20 1013 29.91 842 24.86 16.4 61.4 46 4.9 40.8
17:25 1013 29.91 842 24.86 16.4 61.6 46 5 41
17:30 1013 29.91 842 24.86 16 60.7 48 5 41
17:35 1013 29.91 842 24.86 16.1 60.9 46 4.5 40.1
17:40 1013 29.91 842 24.86 15.9 60.6 47 4.7 40.4
17:45 1013 29.91 842 24.86 16 60.8 46 4.6 40.3
17:50 1013 29.91 842 24.86 16.1 60.9 50 5.6 42.1
17:55 1013 29.91 842 24.86 16 60.7 48 5.1 41.2
18:00 1013 29.91 842 24.86 15.6 60.1 50 5.4 41.7
18:05 1013 29.91 842 24.86 15.6 60.1 52 5.8 42.4
18:10 1013 29.91 842 24.86 15.3 59.5 54 6 42.9
18:15 1013 29.91 842 24.86 14.8 58.7 56 6.1 43.1
18:20 1013 29.91 842 24.86 14.5 58.1 58 6.3 43.3
18:25 1013 29.91 842 24.86 14.2 57.6 59 6.5 43.7
18:30 1013 29.91 842 24.86 14.1 57.3 61 6.8 44.3
18:35 1013 29.91 842 24.86 14 57.1 64 7.4 45.3
18:40 1013 29.91 842 24.86 13.7 56.7 67 7.8 46
18:45 1013 29.91 842 24.86 13.4 56.1 70 8.1 46.7
18:50 1013 29.91 842 24.86 13 55.4 73 8.4 47
18:55 1013 29.91 842 24.86 12.8 55 72 7.9 46.2
19:00 1013 29.91 843 24.89 12.5 54.6 75 8.2 46.7
19:05 1014 29.94 843 24.89 12.4 54.3 75 8.1 46.6
19:10 1014 29.94 843 24.89 12.3 54.1 77 8.4 47.1
19:15 1014 29.94 843 24.89 12.2 54 76 8.2 46.7
19:20 1014 29.94 843 24.89 12.2 53.9 78 8.5 47.3
19:25 1014 29.94 843 24.89 12.2 54 75 8 46.3
19:30 1014 29.94 843 24.89 12.2 54 75 7.9 46.1
19:35 1014 29.94 843 24.89 11.4 52.5 79 8 46.4
19:40 1014 29.94 843 24.89 11.2 52.1 81 8 46.4
19:45 1014 29.94 843 24.89 11.1 51.9 83 8.3 46.9
19:50 1014 29.94 843 24.89 11 51.9 84 8.4 47.1
19:55 1014 29.94 843 24.89 11.1 51.9 82 8.1 46.6
20:00 1014 29.94 843 24.89 11 51.7 83 8.1 46.6
20:05 1014 29.94 843 24.89 10.6 51.1 85 8.2 46.8
20:10 1014 29.94 843 24.89 10.6 51 82 7.6 45.8
20:15 1014 29.94 843 24.89 10.6 51 83 7.9 46.2
20:20 1014 29.94 843 24.89 10.6 51.1 84 8 46.4
20:25 1014 29.94 843 24.89 10.5 50.9 81 7.5 45.5
20:30 1014 29.94 843 24.89 10.7 51.2 82 7.8 46
20:35 1014 29.94 843 24.89 10.6 51.1 83 7.8 46
20:40 1014 29.94 843 24.89 10.5 51 83 7.7 45.9
20:45 1014 29.94 843 24.89 10.5 50.9 84 7.9 46.2
20:50 1014 29.94 843 24.89 10.4 50.7 84 7.8 46.1
20:55 1014 29.94 843 24.89 10.4 50.7 81 7.4 45.2
21:00 1014 29.94 843 24.89 10.4 50.8 81 7.3 45.1
21:05 1014 29.94 843 24.89 10.3 50.6 82 7.5 45.4
21:10 1014 29.94 843 24.89 10.2 50.4 81 7.2 45
21:15 1014 29.94 843 24.89 10.2 50.4 80 7 44.5
21:20 1014 29.94 843 24.89 10.3 50.6 77 6.5 43.7
21:25 1014 29.94 843 24.89 10.5 50.9 77 6.6 43.8
21:30 1014 29.94 843 24.89 10.5 50.9 76 6.5 43.8
21:35 1014 29.94 843 24.89 10.7 51.2 72 5.9 42.7
21:40 1014 29.94 843 24.89 10.9 51.7 75 6.6 43.9
21:45 1014 29.94 844 24.92 10.8 51.5 75 6.6 43.9
21:50 1014 29.94 844 24.92 10.8 51.4 76 6.7 44
21:55 1014 29.94 844 24.92 10.7 51.2 77 6.9 44.4
22:00 1014 29.94 844 24.92 10.6 51 80 7.2 45
22:05 1014 29.94 844 24.92 10.5 50.9 79 7 44.7
22:10 1014 29.94 844 24.92 10.6 51 80 7.2 45
22:15 1015 29.97 844 24.92 10.6 51 79 7.1 44.7
22:20 1014 29.94 844 24.92 10.7 51.3 78 7 44.6
22:25 1015 29.97 844 24.92 10.8 51.5 79 7.3 45.1
22:30 1015 29.97 844 24.92 10.8 51.4 80 7.5 45.4
22:35 1015 29.97 844 24.92 10.8 51.4 79 7.3 45.2
22:40 1015 29.97 844 24.92 10.7 51.2 80 7.5 45.5
22:45 1014 29.94 844 24.92 10.6 51.1 81 7.4 45.4
22:50 1014 29.94 844 24.92 10.7 51.2 81 7.6 45.7
22:55 1014 29.94 844 24.92 10.7 51.3 80 7.5 45.5
23:00 1014 29.94 844 24.92 10.6 51.1 81 7.5 45.5
23:05 1014 29.94 844 24.92 10.6 51 81 7.5 45.6
23:10 1014 29.94 843 24.89 10.5 51 82 7.6 45.7
23:15 1014 29.94 843 24.89 10.4 50.8 81 7.3 45.1
23:20 1014 29.94 843 24.89 10.3 50.6 84 7.7 45.8
23:25 1014 29.94 843 24.89 10.3 50.5 84 7.8 46
23:30 1014 29.94 843 24.89 10.3 50.6 85 8 46.4
23:35 1014 29.94 843 24.89 10.3 50.5 85 7.9 46.3
23:40 1014 29.94 843 24.89 10.1 50.3 87 8.1 46.5
23:45 1014 29.94 843 24.89 10.2 50.3 87 8 46.4
23:50 1014 29.94 843 24.89 10.1 50.2 87 8 46.4
23:55 1014 29.94 843 24.89 10.2 50.4 87 8.2 46.8
24:00 1014 29.94 843 24.89 10.2 50.4 86 8 46.3